createdAt,value
2019-03-30T00:01:21.668Z,75.15
2019-03-30T00:03:30.510Z,74.95
2019-03-30T00:05:38.281Z,74.80
2019-03-30T00:07:45.954Z,74.14
2019-03-30T00:09:53.734Z,73.60
2019-03-30T00:12:01.460Z,73.28
2019-03-30T00:14:09.233Z,73.03
2019-03-30T00:16:16.918Z,72.85
2019-03-30T00:18:24.626Z,72.83
2019-03-30T00:20:32.608Z,72.90
2019-03-30T00:22:40.617Z,72.88
2019-03-30T00:24:48.397Z,72.94
2019-03-30T00:26:56.190Z,73.01
2019-03-30T00:29:03.933Z,73.11
2019-03-30T00:31:11.643Z,73.29
2019-03-30T00:33:19.460Z,73.32
2019-03-30T00:35:27.283Z,73.37
2019-03-30T00:37:35.061Z,73.30
2019-03-30T00:39:42.739Z,73.27
2019-03-30T00:41:50.586Z,73.32
2019-03-30T00:43:58.316Z,73.18
2019-03-30T00:46:06.001Z,73.06
2019-03-30T00:48:13.753Z,73.02
2019-03-30T00:50:22.769Z,73.11
2019-03-30T00:52:30.581Z,73.13
2019-03-30T00:54:38.359Z,73.24
2019-03-30T00:56:46.082Z,73.23
2019-03-30T00:58:53.926Z,73.21
2019-03-30T01:01:02.874Z,73.19
2019-03-30T01:03:10.592Z,73.52
2019-03-30T01:05:18.441Z,73.75
2019-03-30T01:07:26.085Z,73.89
2019-03-30T01:09:33.994Z,74.47
2019-03-30T01:11:41.817Z,74.67
2019-03-30T01:13:49.566Z,74.81
2019-03-30T01:15:58.467Z,75.04
2019-03-30T01:18:06.211Z,75.36
2019-03-30T01:20:13.962Z,75.54
2019-03-30T01:22:21.679Z,75.55
2019-03-30T01:24:30.205Z,75.53
2019-03-30T01:26:37.888Z,75.40
2019-03-30T01:28:45.589Z,75.25
2019-03-30T01:30:54.452Z,75.06
2019-03-30T01:33:02.226Z,75.02
2019-03-30T01:35:09.918Z,74.97
2019-03-30T01:37:17.576Z,74.94
2019-03-30T01:39:25.263Z,75.25
2019-03-30T01:41:32.958Z,75.62
2019-03-30T01:43:40.602Z,75.85
2019-03-30T01:45:48.187Z,75.96
2019-03-30T01:47:55.979Z,76.06
2019-03-30T01:50:16.613Z,76.02
2019-03-30T01:52:14.769Z,75.75
2019-03-30T01:54:22.477Z,75.50
2019-03-30T01:56:30.163Z,75.41
2019-03-30T01:58:37.897Z,75.45
2019-03-30T02:00:45.962Z,75.51
2019-03-30T02:02:53.604Z,75.55
2019-03-30T02:05:01.279Z,75.53
2019-03-30T02:07:10.389Z,75.50
2019-03-30T02:09:18.138Z,75.46
2019-03-30T02:11:25.934Z,75.37
2019-03-30T02:13:33.634Z,75.13
2019-03-30T02:15:41.585Z,74.86
2019-03-30T02:17:49.289Z,74.84
2019-03-30T02:19:56.973Z,75.01
2019-03-30T02:22:04.666Z,75.36
2019-03-30T02:24:12.346Z,75.72
2019-03-30T02:26:20.530Z,75.85
2019-03-30T02:28:28.139Z,75.98
2019-03-30T02:30:36.054Z,75.81
2019-03-30T02:32:43.897Z,75.97
2019-03-30T02:34:51.601Z,76.13
2019-03-30T02:36:59.276Z,76.05
2019-03-30T02:39:07.511Z,75.78
2019-03-30T02:41:15.193Z,75.69
2019-03-30T02:43:22.871Z,75.65
2019-03-30T02:45:30.577Z,75.04
2019-03-30T02:47:38.258Z,75.22
2019-03-30T02:49:45.938Z,75.22
2019-03-30T02:51:53.658Z,75.14
2019-03-30T02:54:01.342Z,74.98
2019-03-30T02:56:09.293Z,75.12
2019-03-30T02:58:16.988Z,75.15
2019-03-30T03:00:24.660Z,75.12
2019-03-30T03:02:32.238Z,75.30
2019-03-30T03:04:40.211Z,75.38
2019-03-30T03:06:48.036Z,75.31
2019-03-30T03:08:55.722Z,75.30
2019-03-30T03:11:03.812Z,75.53
2019-03-30T03:13:11.581Z,75.63
2019-03-30T03:15:19.394Z,75.72
2019-03-30T03:17:27.234Z,75.82
2019-03-30T03:19:34.823Z,75.79
2019-03-30T03:21:42.495Z,75.84
2019-03-30T03:23:51.175Z,75.87
2019-03-30T03:25:58.852Z,75.98
2019-03-30T03:28:07.629Z,76.14
2019-03-30T03:30:15.579Z,76.17
2019-03-30T03:32:23.495Z,76.16
2019-03-30T03:34:31.181Z,76.20
2019-03-30T03:36:38.893Z,76.25
2019-03-30T03:38:46.641Z,76.24
2019-03-30T03:40:54.424Z,76.25
2019-03-30T03:43:02.295Z,76.18
2019-03-30T03:45:10.409Z,75.95
2019-03-30T03:47:18.291Z,75.86
2019-03-30T03:49:25.995Z,75.96
2019-03-30T03:51:34.610Z,75.91
2019-03-30T03:53:42.613Z,76.00
2019-03-30T03:55:51.565Z,76.05
2019-03-30T03:58:00.369Z,75.93
2019-03-30T04:00:09.556Z,75.72
2019-03-30T04:02:18.801Z,76.56
2019-03-30T04:04:28.086Z,76.27
2019-03-30T04:06:39.856Z,76.15
2019-03-30T04:08:48.755Z,76.09
2019-03-30T04:10:57.342Z,76.07
2019-03-30T04:13:09.713Z,77.97
2019-03-30T04:15:25.341Z,77.19
2019-03-30T04:17:33.259Z,77.14
2019-03-30T04:19:40.940Z,76.92
2019-03-30T04:21:48.653Z,76.98
2019-03-30T04:23:56.336Z,77.00
2019-03-30T04:26:04.118Z,77.02
2019-03-30T04:28:13.444Z,76.99
2019-03-30T04:30:21.142Z,77.02
2019-03-30T04:32:28.807Z,76.97
2019-03-30T04:34:36.517Z,76.89
2019-03-30T04:36:44.189Z,76.76
2019-03-30T04:38:52.842Z,76.71
2019-03-30T04:41:00.616Z,76.72
2019-03-30T04:43:09.559Z,76.61
2019-03-30T04:45:17.316Z,76.53
2019-03-30T04:47:25.031Z,76.42
2019-03-30T04:49:32.713Z,76.40
2019-03-30T04:51:40.488Z,76.41
2019-03-30T04:53:49.173Z,76.50
2019-03-30T04:55:56.932Z,76.65
2019-03-30T04:58:04.681Z,76.59
2019-03-30T05:00:12.676Z,76.64
2019-03-30T05:02:20.256Z,76.82
2019-03-30T05:04:30.623Z,76.80
2019-03-30T05:06:38.474Z,76.82
2019-03-30T05:08:46.148Z,76.89
2019-03-30T05:10:53.727Z,76.90
2019-03-30T05:13:01.456Z,76.85
2019-03-30T05:15:09.564Z,76.79
2019-03-30T05:17:17.226Z,76.78
2019-03-30T05:19:25.131Z,76.80
2019-03-30T05:21:32.814Z,76.76
2019-03-30T05:23:41.734Z,76.56
2019-03-30T05:25:49.559Z,76.36
2019-03-30T05:27:57.244Z,76.28
2019-03-30T05:30:07.532Z,76.37
2019-03-30T05:32:15.373Z,76.48
2019-03-30T05:34:23.149Z,76.45
2019-03-30T05:36:33.104Z,76.42
2019-03-30T05:38:40.798Z,76.50
2019-03-30T05:40:48.508Z,76.53
2019-03-30T05:42:57.284Z,76.57
2019-03-30T05:45:08.109Z,76.54
2019-03-30T05:47:15.808Z,76.39
2019-03-30T05:49:24.684Z,76.44
2019-03-30T05:51:32.465Z,76.62
2019-03-30T05:53:40.214Z,76.39
2019-03-30T05:55:47.935Z,76.33
2019-03-30T05:57:56.129Z,76.39
2019-03-30T06:00:05.686Z,76.48
2019-03-30T06:02:13.367Z,76.57
2019-03-30T06:04:21.074Z,76.43
2019-03-30T06:06:28.756Z,76.34
2019-03-30T06:08:36.434Z,76.11
2019-03-30T06:10:45.131Z,75.99
2019-03-30T06:12:52.803Z,75.93
2019-03-30T06:15:01.667Z,75.93
2019-03-30T06:17:09.495Z,75.99
2019-03-30T06:19:17.170Z,75.96
2019-03-30T06:21:24.888Z,76.27
2019-03-30T06:23:32.687Z,76.11
2019-03-30T06:25:41.445Z,75.97
2019-03-30T06:27:49.218Z,76.16
2019-03-30T06:30:21.184Z,75.92
2019-03-30T06:32:30.101Z,75.79
2019-03-30T06:34:38.014Z,75.78
2019-03-30T06:36:45.718Z,75.91
2019-03-30T06:38:54.658Z,75.88
2019-03-30T06:41:03.464Z,75.92
2019-03-30T06:43:11.234Z,75.75
2019-03-30T06:45:18.875Z,75.70
2019-03-30T06:47:26.559Z,75.57
2019-03-30T06:49:34.369Z,75.53
2019-03-30T06:51:42.049Z,75.49
2019-03-30T06:53:49.802Z,75.37
2019-03-30T06:55:57.501Z,75.33
2019-03-30T06:58:05.357Z,75.19
2019-03-30T07:00:13.559Z,75.13
2019-03-30T07:02:21.428Z,75.74
2019-03-30T07:04:29.178Z,75.38
2019-03-30T07:06:39.661Z,75.22
2019-03-30T07:08:48.673Z,75.17
2019-03-30T07:10:56.791Z,74.72
2019-03-30T07:13:04.742Z,74.30
2019-03-30T07:15:12.511Z,74.14
2019-03-30T07:17:20.372Z,73.99
2019-03-30T07:19:31.455Z,73.71
2019-03-30T07:21:40.362Z,73.44
2019-03-30T07:23:49.485Z,73.24
2019-03-30T07:25:57.162Z,73.12
2019-03-30T07:28:04.945Z,73.45
2019-03-30T07:30:12.865Z,73.27
2019-03-30T07:32:20.631Z,73.02
2019-03-30T07:34:28.354Z,72.72
2019-03-30T07:36:36.097Z,72.52
2019-03-30T07:38:43.776Z,72.31
2019-03-30T07:40:51.620Z,72.07
2019-03-30T07:42:59.373Z,71.91
2019-03-30T07:45:08.885Z,71.59
2019-03-30T07:47:16.587Z,71.15
2019-03-30T07:49:24.901Z,70.56
2019-03-30T07:51:33.673Z,71.77
2019-03-30T07:53:44.843Z,70.91
2019-03-30T07:55:51.962Z,71.71
2019-03-30T07:57:59.748Z,72.31
2019-03-30T08:00:09.758Z,70.44
2019-03-30T08:02:18.616Z,71.23
2019-03-30T08:04:28.656Z,71.50
2019-03-30T08:06:35.688Z,71.63
2019-03-30T08:08:43.363Z,72.62
2019-03-30T08:10:51.033Z,71.86
2019-03-30T08:12:58.802Z,70.36
2019-03-30T08:15:08.977Z,71.77
2019-03-30T08:17:16.646Z,72.21
2019-03-30T08:19:24.440Z,71.20
2019-03-30T08:21:33.304Z,70.59
2019-03-30T08:23:41.022Z,69.44
2019-03-30T08:25:49.906Z,69.27
2019-03-30T08:27:57.688Z,70.81
2019-03-30T08:30:08.430Z,70.56
2019-03-30T08:32:16.139Z,70.87
2019-03-30T08:34:24.661Z,69.20
2019-03-30T08:36:32.338Z,70.18
2019-03-30T08:38:40.043Z,71.07
2019-03-30T08:40:47.865Z,71.17
2019-03-30T08:42:55.534Z,69.96
2019-03-30T08:45:03.595Z,69.22
2019-03-30T08:47:11.266Z,67.77
2019-03-30T08:49:18.951Z,67.56
2019-03-30T08:51:26.658Z,68.12
2019-03-30T08:53:34.462Z,67.88
2019-03-30T08:55:42.202Z,68.87
2019-03-30T08:57:49.975Z,69.36
2019-03-30T08:59:57.813Z,68.51
2019-03-30T09:02:05.488Z,69.55
2019-03-30T09:04:13.207Z,69.05
2019-03-30T09:06:21.025Z,68.25
2019-03-30T09:08:28.701Z,68.98
2019-03-30T09:10:36.526Z,67.63
2019-03-30T09:12:44.190Z,68.03
2019-03-30T09:14:51.872Z,67.00
2019-03-30T09:16:59.672Z,68.21
2019-03-30T09:19:07.412Z,67.13
2019-03-30T09:21:15.228Z,67.67
2019-03-30T09:23:22.989Z,67.30
2019-03-30T09:25:30.567Z,67.34
2019-03-30T09:27:38.331Z,66.11
2019-03-30T09:29:46.129Z,67.08
2019-03-30T09:31:54.797Z,66.02
2019-03-30T09:34:02.472Z,65.27
2019-03-30T09:36:10.323Z,66.34
2019-03-30T09:38:17.988Z,65.64
2019-03-30T09:40:25.746Z,64.66
2019-03-30T09:42:33.568Z,64.24
2019-03-30T09:44:41.255Z,63.67
2019-03-30T09:46:48.998Z,63.84
2019-03-30T09:48:56.732Z,63.28
2019-03-30T09:51:04.472Z,63.82
2019-03-30T09:53:12.163Z,65.02
2019-03-30T09:55:19.830Z,65.08
2019-03-30T09:57:27.647Z,64.65
2019-03-30T09:59:35.400Z,65.11
2019-03-30T10:01:43.032Z,63.14
2019-03-30T10:03:50.722Z,62.96
2019-03-30T10:06:00.799Z,63.13
2019-03-30T10:08:08.615Z,63.57
2019-03-30T10:10:16.376Z,62.20
2019-03-30T10:12:24.162Z,63.24
2019-03-30T10:14:31.943Z,62.12
2019-03-30T10:16:39.632Z,63.10
2019-03-30T10:18:47.320Z,62.19
2019-03-30T10:20:55.089Z,61.32
2019-03-30T10:23:03.855Z,61.21
2019-03-30T10:25:11.875Z,61.48
2019-03-30T10:27:19.696Z,60.74
2019-03-30T10:29:27.516Z,59.82
2019-03-30T10:31:35.273Z,59.73
2019-03-30T10:33:43.005Z,59.75
2019-03-30T10:35:50.845Z,58.56
2019-03-30T10:37:59.292Z,58.22
2019-03-30T10:40:08.576Z,59.16
2019-03-30T10:42:16.414Z,59.69
2019-03-30T10:44:24.093Z,60.38
2019-03-30T10:46:31.807Z,60.62
2019-03-30T10:48:40.681Z,60.18
2019-03-30T10:50:48.377Z,59.24
2019-03-30T10:52:57.286Z,59.30
2019-03-30T10:55:06.490Z,57.89
2019-03-30T10:57:14.172Z,57.03
2019-03-30T10:59:21.961Z,58.47
2019-03-30T11:01:29.680Z,58.30
2019-03-30T11:03:37.571Z,58.45
2019-03-30T11:05:45.486Z,58.31
2019-03-30T11:07:53.176Z,56.75
2019-03-30T11:10:00.950Z,56.76
2019-03-30T11:12:08.718Z,56.33
2019-03-30T11:14:16.510Z,56.70
2019-03-30T11:16:24.372Z,56.33
2019-03-30T11:18:32.086Z,55.64
2019-03-30T11:20:39.941Z,54.99
2019-03-30T11:22:48.824Z,54.83
2019-03-30T11:25:07.241Z,54.49
2019-03-30T11:27:06.011Z,54.92
2019-03-30T11:29:13.692Z,55.80
2019-03-30T11:31:21.483Z,54.88
2019-03-30T11:33:29.291Z,53.87
2019-03-30T11:35:36.981Z,53.49
2019-03-30T11:37:44.706Z,53.61
2019-03-30T11:39:52.490Z,53.93
2019-03-30T11:42:00.382Z,52.52
2019-03-30T11:44:09.164Z,53.29
2019-03-30T11:46:16.850Z,52.79
2019-03-30T11:48:24.542Z,52.56
2019-03-30T11:50:32.413Z,53.64
2019-03-30T11:52:40.113Z,50.97
2019-03-30T11:54:47.806Z,52.25
2019-03-30T11:56:55.516Z,51.18
2019-03-30T11:59:03.273Z,52.41
2019-03-30T12:01:10.975Z,51.73
2019-03-30T12:03:18.859Z,52.87
2019-03-30T12:05:26.647Z,50.76
2019-03-30T12:07:34.332Z,50.86
2019-03-30T12:09:42.263Z,50.93
2019-03-30T12:11:50.057Z,50.50
2019-03-30T12:13:57.777Z,51.06
2019-03-30T12:16:05.665Z,50.43
2019-03-30T12:18:14.274Z,50.82
2019-03-30T12:20:21.871Z,50.66
2019-03-30T12:22:29.615Z,49.87
2019-03-30T12:24:37.302Z,50.34
2019-03-30T12:26:44.992Z,51.65
2019-03-30T12:28:52.712Z,51.13
2019-03-30T12:31:00.415Z,50.61
2019-03-30T12:33:08.101Z,48.96
2019-03-30T12:35:15.963Z,48.07
2019-03-30T12:37:23.785Z,47.62
2019-03-30T12:39:31.551Z,47.46
2019-03-30T12:41:40.185Z,47.72
2019-03-30T12:43:47.873Z,47.70
2019-03-30T12:45:55.565Z,49.18
2019-03-30T12:48:03.302Z,49.64
2019-03-30T12:50:11.403Z,48.93
2019-03-30T12:52:19.192Z,46.16
2019-03-30T12:54:27.020Z,46.53
2019-03-30T12:56:34.870Z,45.43
2019-03-30T12:58:42.562Z,47.22
2019-03-30T13:00:50.828Z,47.19
2019-03-30T13:02:58.520Z,45.98
2019-03-30T13:05:07.697Z,45.38
2019-03-30T13:07:15.347Z,45.20
2019-03-30T13:09:23.111Z,44.95
2019-03-30T13:11:30.803Z,46.01
2019-03-30T13:13:38.518Z,45.35
2019-03-30T13:15:46.375Z,45.20
2019-03-30T13:17:54.195Z,45.86
2019-03-30T13:20:01.836Z,45.36
2019-03-30T13:22:09.520Z,45.58
2019-03-30T13:24:17.382Z,46.02
2019-03-30T13:26:25.021Z,45.83
2019-03-30T13:28:32.612Z,45.44
2019-03-30T13:30:41.664Z,44.86
2019-03-30T13:32:49.491Z,44.28
2019-03-30T13:34:57.222Z,44.20
2019-03-30T13:37:18.831Z,44.57
2019-03-30T13:39:26.520Z,43.34
2019-03-30T13:41:34.351Z,44.45
2019-03-30T13:43:42.581Z,44.23
2019-03-30T13:45:51.571Z,44.30
2019-03-30T13:47:59.254Z,44.53
2019-03-30T13:50:08.027Z,44.08
2019-03-30T13:52:15.776Z,43.78
2019-03-30T13:54:23.473Z,43.50
2019-03-30T13:56:31.158Z,43.71
2019-03-30T13:58:38.941Z,42.94
2019-03-30T14:00:46.736Z,43.55
2019-03-30T14:02:57.228Z,41.54
2019-03-30T14:05:06.462Z,42.64
2019-03-30T14:07:15.121Z,43.58
2019-03-30T14:09:23.800Z,42.78
2019-03-30T14:11:31.606Z,42.67
2019-03-30T14:13:39.367Z,42.62
2019-03-30T14:15:46.959Z,43.26
2019-03-30T14:17:54.780Z,42.76
2019-03-30T14:20:03.023Z,43.09
2019-03-30T14:22:10.726Z,42.52
2019-03-30T14:24:18.448Z,41.87
2019-03-30T14:26:31.627Z,42.44
2019-03-30T14:28:35.427Z,42.04
2019-03-30T14:30:44.346Z,41.84
2019-03-30T14:32:52.105Z,42.16
2019-03-30T14:34:59.798Z,41.74
2019-03-30T14:37:07.413Z,41.60
2019-03-30T14:39:15.103Z,42.03
2019-03-30T14:41:23.988Z,41.20
2019-03-30T14:43:32.674Z,41.32
2019-03-30T14:45:40.495Z,42.00
2019-03-30T14:47:48.281Z,42.07
2019-03-30T14:49:55.995Z,41.89
2019-03-30T14:52:03.777Z,42.11
2019-03-30T14:54:14.220Z,41.77
2019-03-30T14:56:21.947Z,40.95
2019-03-30T14:58:29.744Z,40.55
2019-03-30T15:00:37.589Z,39.74
2019-03-30T15:02:45.523Z,40.74
2019-03-30T15:04:53.108Z,40.42
2019-03-30T15:07:00.801Z,40.68
2019-03-30T15:09:08.679Z,41.73
2019-03-30T15:11:17.651Z,41.90
2019-03-30T15:13:25.659Z,41.89
2019-03-30T15:15:33.314Z,40.74
2019-03-30T15:17:41.424Z,41.78
2019-03-30T15:19:49.211Z,41.97
2019-03-30T15:21:56.943Z,42.22
2019-03-30T15:24:04.801Z,42.30
2019-03-30T15:26:12.594Z,43.19
2019-03-30T15:28:20.308Z,42.14
2019-03-30T15:30:27.987Z,42.59
2019-03-30T15:32:35.676Z,42.85
2019-03-30T15:34:43.465Z,42.52
2019-03-30T15:36:51.234Z,41.99
2019-03-30T15:38:58.918Z,42.05
2019-03-30T15:41:06.701Z,42.31
2019-03-30T15:43:14.573Z,41.85
2019-03-30T15:45:22.333Z,42.30
2019-03-30T15:47:30.524Z,41.55
2019-03-30T15:49:38.212Z,40.53
2019-03-30T15:51:45.909Z,38.74
2019-03-30T15:53:53.793Z,38.52
2019-03-30T15:56:01.582Z,38.96
2019-03-30T15:58:09.438Z,39.22
2019-03-30T16:00:17.955Z,38.73
2019-03-30T16:02:25.717Z,39.34
2019-03-30T16:04:33.412Z,39.21
2019-03-30T16:06:41.199Z,39.17
2019-03-30T16:08:48.891Z,39.54
2019-03-30T16:10:56.823Z,40.28
2019-03-30T16:13:04.607Z,40.53
2019-03-30T16:15:12.476Z,39.96
2019-03-30T16:17:20.178Z,40.03
2019-03-30T16:19:27.893Z,39.84
2019-03-30T16:21:35.546Z,40.22
2019-03-30T16:23:43.406Z,40.17
2019-03-30T16:25:52.335Z,40.76
2019-03-30T16:28:00.026Z,40.33
2019-03-30T16:30:09.323Z,40.14
2019-03-30T16:32:17.078Z,40.29
2019-03-30T16:34:26.470Z,40.41
2019-03-30T16:36:34.162Z,40.34
2019-03-30T16:38:41.875Z,40.62
2019-03-30T16:40:49.673Z,40.70
2019-03-30T16:42:57.361Z,40.99
2019-03-30T16:45:07.990Z,41.19
2019-03-30T16:47:15.676Z,41.23
2019-03-30T16:49:23.450Z,41.27
2019-03-30T16:51:31.270Z,41.28
2019-03-30T16:53:38.860Z,41.44
2019-03-30T16:55:47.877Z,41.64
2019-03-30T16:57:56.707Z,41.98
2019-03-30T17:00:06.637Z,42.18
2019-03-30T17:02:14.403Z,42.56
2019-03-30T17:04:22.328Z,43.25
2019-03-30T17:06:30.071Z,44.15
2019-03-30T17:08:37.876Z,44.79
2019-03-30T17:10:45.602Z,45.39
2019-03-30T17:12:53.453Z,45.88
2019-03-30T17:15:01.231Z,46.51
2019-03-30T17:17:10.313Z,47.10
2019-03-30T17:19:18.071Z,47.70
2019-03-30T17:21:25.776Z,48.47
2019-03-30T17:23:33.504Z,49.22
2019-03-30T17:25:41.212Z,49.91
2019-03-30T17:27:58.223Z,50.63
2019-03-30T17:29:58.593Z,51.27
2019-03-30T17:32:07.555Z,51.78
2019-03-30T17:34:15.260Z,52.13
2019-03-30T17:36:23.122Z,52.66
2019-03-30T17:38:32.897Z,53.05
2019-03-30T17:40:40.500Z,53.48
2019-03-30T17:42:48.346Z,53.78
2019-03-30T17:44:56.081Z,54.13
2019-03-30T17:47:06.086Z,54.51
2019-03-30T17:49:13.813Z,54.79
2019-03-30T17:51:21.517Z,55.12
2019-03-30T17:53:29.228Z,55.29
2019-03-30T17:55:36.952Z,55.57
2019-03-30T17:57:44.725Z,55.96
2019-03-30T17:59:52.597Z,56.28
2019-03-30T18:02:00.521Z,56.41
2019-03-30T18:04:08.217Z,56.72
2019-03-30T18:06:15.916Z,57.04
2019-03-30T18:08:23.707Z,57.51
2019-03-30T18:10:31.513Z,57.89
2019-03-30T18:12:39.325Z,58.05
2019-03-30T18:14:47.271Z,58.36
2019-03-30T18:16:54.973Z,58.55
2019-03-30T18:19:02.795Z,58.63
2019-03-30T18:21:10.717Z,58.73
2019-03-30T18:23:18.415Z,58.80
2019-03-30T18:25:26.100Z,58.77
2019-03-30T18:27:33.807Z,58.74
2019-03-30T18:29:41.399Z,59.00
2019-03-30T18:31:49.172Z,59.00
2019-03-30T18:33:57.076Z,59.12
2019-03-30T18:36:05.282Z,59.57
2019-03-30T18:38:14.241Z,59.89
2019-03-30T18:40:31.694Z,59.96
2019-03-30T18:42:39.386Z,59.95
2019-03-30T18:44:47.618Z,59.99
2019-03-30T18:46:55.437Z,60.45
2019-03-30T18:49:03.137Z,60.30
2019-03-30T18:51:11.068Z,60.39
2019-03-30T18:53:19.483Z,60.42
2019-03-30T18:55:27.224Z,60.39
2019-03-30T18:57:35.085Z,60.54
2019-03-30T18:59:42.970Z,60.53
2019-03-30T19:01:50.759Z,60.64
2019-03-30T19:03:58.688Z,60.69
2019-03-30T19:06:06.504Z,60.77
2019-03-30T19:08:14.427Z,60.65
2019-03-30T19:10:22.080Z,60.64
2019-03-30T19:12:30.869Z,60.74
2019-03-30T19:14:39.819Z,60.91
2019-03-30T19:16:48.437Z,61.43
2019-03-30T19:18:56.327Z,62.45
2019-03-30T19:21:04.011Z,62.47
2019-03-30T19:23:11.763Z,62.64
2019-03-30T19:25:19.809Z,62.61
2019-03-30T19:27:27.573Z,62.53
2019-03-30T19:29:35.269Z,62.73
2019-03-30T19:31:42.908Z,62.86
2019-03-30T19:33:50.602Z,62.82
2019-03-30T19:35:58.407Z,62.91
2019-03-30T19:38:06.133Z,62.99
2019-03-30T19:40:14.000Z,63.13
2019-03-30T19:42:21.739Z,63.03
2019-03-30T19:44:29.503Z,63.05
2019-03-30T19:46:37.294Z,63.49
2019-03-30T19:48:45.097Z,63.77
2019-03-30T19:50:52.823Z,63.68
2019-03-30T19:53:00.486Z,63.80
2019-03-30T19:55:08.955Z,64.21
2019-03-30T19:57:16.684Z,64.45
2019-03-30T19:59:24.374Z,64.55
2019-03-30T20:01:32.108Z,64.77
2019-03-30T20:03:40.911Z,65.51
2019-03-30T20:05:48.712Z,65.94
2019-03-30T20:08:06.021Z,66.43
2019-03-30T20:10:07.448Z,66.33
2019-03-30T20:12:15.140Z,66.65
2019-03-30T20:14:22.938Z,66.78
2019-03-30T20:16:30.731Z,67.13
2019-03-30T20:18:38.529Z,68.19
2019-03-30T20:20:46.275Z,68.45
2019-03-30T20:22:54.020Z,68.42
2019-03-30T20:25:01.937Z,68.36
2019-03-30T20:27:09.633Z,68.33
2019-03-30T20:29:25.240Z,68.26
2019-03-30T20:31:26.747Z,68.26
2019-03-30T20:33:34.461Z,68.29
2019-03-30T20:35:42.293Z,68.36
2019-03-30T20:37:50.183Z,68.52
2019-03-30T20:39:57.884Z,68.71
2019-03-30T20:42:05.904Z,69.03
2019-03-30T20:44:13.672Z,68.82
2019-03-30T20:46:21.516Z,68.99
2019-03-30T20:48:29.245Z,68.75
2019-03-30T20:50:37.093Z,68.68
2019-03-30T20:52:44.782Z,68.59
2019-03-30T20:54:52.409Z,68.46
2019-03-30T20:57:00.957Z,68.40
2019-03-30T20:59:08.672Z,68.59
2019-03-30T21:01:16.461Z,68.97
2019-03-30T21:03:25.359Z,69.23
2019-03-30T21:05:33.051Z,69.32
2019-03-30T21:07:41.920Z,69.39
2019-03-30T21:09:49.838Z,69.25
2019-03-30T21:11:57.644Z,68.96
2019-03-30T21:14:05.485Z,68.66
2019-03-30T21:16:13.221Z,68.45
2019-03-30T21:18:20.984Z,68.28
2019-03-30T21:20:28.892Z,67.99
2019-03-30T21:22:37.013Z,67.69
2019-03-30T21:24:45.982Z,67.54
2019-03-30T21:26:53.794Z,67.52
2019-03-30T21:29:01.635Z,67.69
2019-03-30T21:31:09.415Z,68.00
2019-03-30T21:33:17.218Z,68.45
2019-03-30T21:35:24.942Z,69.29
2019-03-30T21:37:32.644Z,69.67
2019-03-30T21:39:40.377Z,69.87
2019-03-30T21:41:48.145Z,69.92
2019-03-30T21:43:56.096Z,70.07
2019-03-30T21:46:03.808Z,70.23
2019-03-30T21:48:11.518Z,70.37
2019-03-30T21:50:19.283Z,70.45
2019-03-30T21:52:28.213Z,70.56
2019-03-30T21:54:35.916Z,70.63
2019-03-30T21:56:43.623Z,70.82
2019-03-30T21:58:51.430Z,70.98
2019-03-30T22:01:00.110Z,71.22
2019-03-30T22:03:08.045Z,71.05
2019-03-30T22:05:15.965Z,70.72
2019-03-30T22:07:24.065Z,70.23
2019-03-30T22:09:32.172Z,69.95
2019-03-30T22:11:39.977Z,69.53
2019-03-30T22:13:47.811Z,69.67
2019-03-30T22:15:55.511Z,69.71
2019-03-30T22:18:03.256Z,69.75
2019-03-30T22:20:11.157Z,69.76
2019-03-30T22:22:18.846Z,69.87
2019-03-30T22:24:26.681Z,69.94
2019-03-30T22:26:34.372Z,70.03
2019-03-30T22:28:42.122Z,69.95
2019-03-30T22:30:49.928Z,69.94
2019-03-30T22:32:57.714Z,70.06
2019-03-30T22:35:06.194Z,70.21
2019-03-30T22:37:13.812Z,70.43
2019-03-30T22:39:21.505Z,70.67
2019-03-30T22:41:29.197Z,71.04
2019-03-30T22:43:37.022Z,71.18
2019-03-30T22:45:44.713Z,71.69
2019-03-30T22:47:52.445Z,71.80
2019-03-30T22:50:01.452Z,71.84
2019-03-30T22:52:09.319Z,71.85
2019-03-30T22:54:17.185Z,71.79
2019-03-30T22:56:26.064Z,71.78
2019-03-30T22:58:33.855Z,72.12
2019-03-30T23:00:41.665Z,71.93
2019-03-30T23:02:50.988Z,71.84
2019-03-30T23:04:59.868Z,71.79
2019-03-30T23:07:07.618Z,71.66
2019-03-30T23:09:15.547Z,71.60
2019-03-30T23:11:23.230Z,71.57
2019-03-30T23:13:30.938Z,71.44
2019-03-30T23:15:38.951Z,71.43
2019-03-30T23:17:46.682Z,71.56
2019-03-30T23:19:54.472Z,71.69
2019-03-30T23:22:02.190Z,71.72
2019-03-30T23:24:09.986Z,71.67
2019-03-30T23:26:17.745Z,71.37
2019-03-30T23:28:25.519Z,70.91
2019-03-30T23:30:33.280Z,70.81
2019-03-30T23:32:41.076Z,70.76
2019-03-30T23:34:49.024Z,70.80
2019-03-30T23:36:56.806Z,70.89
2019-03-30T23:39:06.827Z,70.92
2019-03-30T23:41:17.544Z,71.32
2019-03-30T23:43:25.299Z,71.23
2019-03-30T23:45:32.888Z,71.56
2019-03-30T23:47:42.233Z,71.76
2019-03-30T23:49:49.943Z,72.28
2019-03-30T23:51:57.626Z,72.17
2019-03-30T23:54:05.587Z,72.20
2019-03-30T23:56:24.815Z,72.23
2019-03-30T23:58:32.498Z,72.16
